sensor_id;sensor_type;location;lat;lon;timestamp;P1;durP1;ratioP1;P2;durP2;ratioP2
30966;SDS011;17649;51.836;8.330;2023-09-30T14:31:28;8.77;;;3.53;;
30966;SDS011;17649;51.836;8.330;2023-09-30T14:34:28;8.73;;;3.58;;
30966;SDS011;17649;51.836;8.330;2023-09-30T14:37:29;10.73;;;2.92;;
30966;SDS011;17649;51.836;8.330;2023-09-30T14:40:30;4.43;;;2.83;;
30966;SDS011;17649;51.836;8.330;2023-09-30T14:43:30;10.27;;;3.22;;
30966;SDS011;17649;51.836;8.330;2023-09-30T14:46:30;8.38;;;3.25;;
30966;SDS011;17649;51.836;8.330;2023-09-30T14:49:31;15.77;;;3.28;;
30966;SDS011;17649;51.836;8.330;2023-09-30T14:52:32;5.63;;;2.75;;
30966;SDS011;17649;51.836;8.330;2023-09-30T14:55:32;8.40;;;3.10;;
30966;SDS011;17649;51.836;8.330;2023-09-30T14:58:33;11.25;;;3.63;;
30966;SDS011;17649;51.836;8.330;2023-09-30T15:01:34;5.18;;;2.90;;
30966;SDS011;17649;51.836;8.330;2023-09-30T15:04:34;6.45;;;2.75;;
30966;SDS011;17649;51.836;8.330;2023-09-30T15:07:35;12.57;;;3.20;;
30966;SDS011;17649;51.836;8.330;2023-09-30T15:10:37;8.82;;;3.28;;
30966;SDS011;17649;51.836;8.330;2023-09-30T15:13:38;9.57;;;3.13;;
30966;SDS011;17649;51.836;8.330;2023-09-30T15:16:38;7.15;;;2.65;;
30966;SDS011;17649;51.836;8.330;2023-09-30T15:19:38;12.23;;;4.18;;
30966;SDS011;17649;51.836;8.330;2023-09-30T15:22:39;10.23;;;3.20;;
30966;SDS011;17649;51.836;8.330;2023-09-30T15:25:42;7.28;;;3.45;;
30966;SDS011;17649;51.836;8.330;2023-09-30T15:28:43;9.27;;;3.42;;
30966;SDS011;17649;51.836;8.330;2023-09-30T15:31:47;14.85;;;3.17;;
30966;SDS011;17649;51.836;8.330;2023-09-30T15:34:48;8.50;;;3.35;;
30966;SDS011;17649;51.836;8.330;2023-09-30T15:37:48;11.85;;;3.70;;
30966;SDS011;17649;51.836;8.330;2023-09-30T15:43:58;6.93;;;2.80;;
30966;SDS011;17649;51.836;8.330;2023-09-30T15:50:00;11.07;;;3.97;;
30966;SDS011;17649;51.836;8.330;2023-09-30T15:53:00;7.38;;;3.00;;
30966;SDS011;17649;51.836;8.330;2023-09-30T15:56:04;10.15;;;3.80;;
30966;SDS011;17649;51.836;8.330;2023-09-30T15:59:05;9.35;;;3.65;;
30966;SDS011;17649;51.836;8.330;2023-09-30T16:02:05;8.32;;;3.38;;
30966;SDS011;17649;51.836;8.330;2023-09-30T16:05:05;9.25;;;3.15;;
30966;SDS011;17649;51.836;8.330;2023-09-30T16:08:06;8.20;;;3.05;;
30966;SDS011;17649;51.836;8.330;2023-09-30T16:11:07;11.13;;;3.45;;
30966;SDS011;17649;51.836;8.330;2023-09-30T16:14:08;7.63;;;3.40;;
30966;SDS011;17649;51.836;8.330;2023-09-30T16:17:08;16.52;;;4.28;;
30966;SDS011;17649;51.836;8.330;2023-09-30T16:20:09;8.43;;;3.97;;
30966;SDS011;17649;51.836;8.330;2023-09-30T16:23:10;12.77;;;4.88;;
30966;SDS011;17649;51.836;8.330;2023-09-30T16:26:12;9.48;;;4.05;;
30966;SDS011;17649;51.836;8.330;2023-09-30T16:29:13;7.22;;;3.50;;
30966;SDS011;17649;51.836;8.330;2023-09-30T16:32:14;8.70;;;3.60;;
30966;SDS011;17649;51.836;8.330;2023-09-30T16:35:14;9.85;;;3.95;;
30966;SDS011;17649;51.836;8.330;2023-09-30T16:38:15;5.82;;;3.45;;
30966;SDS011;17649;51.836;8.330;2023-09-30T16:41:15;6.75;;;3.42;;
30966;SDS011;17649;51.836;8.330;2023-09-30T16:44:15;11.07;;;3.85;;
30966;SDS011;17649;51.836;8.330;2023-09-30T16:47:17;6.97;;;3.92;;
30966;SDS011;17649;51.836;8.330;2023-09-30T16:50:17;15.32;;;3.90;;
30966;SDS011;17649;51.836;8.330;2023-09-30T16:53:17;14.02;;;4.20;;
30966;SDS011;17649;51.836;8.330;2023-09-30T16:56:20;6.32;;;3.97;;
30966;SDS011;17649;51.836;8.330;2023-09-30T16:59:20;20.55;;;5.38;;
30966;SDS011;17649;51.836;8.330;2023-09-30T17:02:21;10.50;;;4.57;;
30966;SDS011;17649;51.836;8.330;2023-09-30T17:05:21;6.57;;;4.07;;
30966;SDS011;17649;51.836;8.330;2023-09-30T17:08:21;6.97;;;3.97;;
30966;SDS011;17649;51.836;8.330;2023-09-30T17:11:22;10.30;;;5.00;;
30966;SDS011;17649;51.836;8.330;2023-09-30T17:14:22;9.18;;;3.92;;
30966;SDS011;17649;51.836;8.330;2023-09-30T17:17:23;10.98;;;4.50;;
30966;SDS011;17649;51.836;8.330;2023-09-30T17:20:23;12.57;;;4.93;;
30966;SDS011;17649;51.836;8.330;2023-09-30T17:23:24;9.90;;;4.65;;
30966;SDS011;17649;51.836;8.330;2023-09-30T17:26:24;12.13;;;5.00;;
30966;SDS011;17649;51.836;8.330;2023-09-30T17:29:25;13.23;;;5.50;;
30966;SDS011;17649;51.836;8.330;2023-09-30T17:32:25;14.82;;;5.07;;
30966;SDS011;17649;51.836;8.330;2023-09-30T17:35:26;8.35;;;4.55;;
30966;SDS011;17649;51.836;8.330;2023-09-30T17:38:27;13.93;;;5.20;;
30966;SDS011;17649;51.836;8.330;2023-09-30T17:41:28;13.98;;;6.93;;
30966;SDS011;17649;51.836;8.330;2023-09-30T17:44:29;15.25;;;6.63;;
30966;SDS011;17649;51.836;8.330;2023-09-30T17:47:29;12.55;;;5.50;;
30966;SDS011;17649;51.836;8.330;2023-09-30T17:50:30;11.63;;;6.18;;
30966;SDS011;17649;51.836;8.330;2023-09-30T17:53:30;13.00;;;7.10;;
30966;SDS011;17649;51.836;8.330;2023-09-30T17:56:31;14.13;;;6.60;;
30966;SDS011;17649;51.836;8.330;2023-09-30T17:59:32;11.10;;;6.28;;
30966;SDS011;17649;51.836;8.330;2023-09-30T18:02:32;14.00;;;6.25;;
30966;SDS011;17649;51.836;8.330;2023-09-30T18:05:32;14.93;;;7.28;;
30966;SDS011;17649;51.836;8.330;2023-09-30T18:08:33;16.17;;;8.52;;
30966;SDS011;17649;51.836;8.330;2023-09-30T18:11:34;14.82;;;7.65;;
30966;SDS011;17649;51.836;8.330;2023-09-30T18:14:37;14.88;;;6.72;;
30966;SDS011;17649;51.836;8.330;2023-09-30T18:17:38;11.88;;;5.75;;
30966;SDS011;17649;51.836;8.330;2023-09-30T18:20:39;13.73;;;6.45;;
30966;SDS011;17649;51.836;8.330;2023-09-30T18:23:40;15.80;;;7.60;;
30966;SDS011;17649;51.836;8.330;2023-09-30T18:26:41;18.63;;;6.93;;
30966;SDS011;17649;51.836;8.330;2023-09-30T18:29:41;11.05;;;6.07;;
30966;SDS011;17649;51.836;8.330;2023-09-30T18:32:43;10.17;;;5.37;;
30966;SDS011;17649;51.836;8.330;2023-09-30T18:35:43;11.98;;;5.45;;
30966;SDS011;17649;51.836;8.330;2023-09-30T18:38:44;10.48;;;6.00;;
30966;SDS011;17649;51.836;8.330;2023-09-30T18:41:46;11.73;;;5.40;;
30966;SDS011;17649;51.836;8.330;2023-09-30T18:44:46;16.40;;;6.13;;
30966;SDS011;17649;51.836;8.330;2023-09-30T18:47:47;11.73;;;6.10;;
30966;SDS011;17649;51.836;8.330;2023-09-30T18:50:50;13.98;;;5.78;;
30966;SDS011;17649;51.836;8.330;2023-09-30T18:53:51;11.95;;;6.53;;
30966;SDS011;17649;51.836;8.330;2023-09-30T18:56:52;10.25;;;6.68;;
30966;SDS011;17649;51.836;8.330;2023-09-30T18:59:53;13.63;;;6.22;;
30966;SDS011;17649;51.836;8.330;2023-09-30T19:02:54;14.82;;;6.53;;
30966;SDS011;17649;51.836;8.330;2023-09-30T19:05:54;12.23;;;6.70;;
30966;SDS011;17649;51.836;8.330;2023-09-30T19:08:55;14.02;;;7.30;;
30966;SDS011;17649;51.836;8.330;2023-09-30T19:11:55;15.05;;;7.95;;
30966;SDS011;17649;51.836;8.330;2023-09-30T19:14:56;15.77;;;6.97;;
30966;SDS011;17649;51.836;8.330;2023-09-30T19:17:56;13.95;;;6.90;;
30966;SDS011;17649;51.836;8.330;2023-09-30T19:20:56;13.77;;;6.60;;
30966;SDS011;17649;51.836;8.330;2023-09-30T19:23:57;10.43;;;6.07;;
30966;SDS011;17649;51.836;8.330;2023-09-30T19:26:59;9.85;;;6.18;;
30966;SDS011;17649;51.836;8.330;2023-09-30T19:30:00;13.65;;;6.68;;
30966;SDS011;17649;51.836;8.330;2023-09-30T19:33:00;14.32;;;6.28;;
30966;SDS011;17649;51.836;8.330;2023-09-30T19:36:05;10.90;;;7.20;;
30966;SDS011;17649;51.836;8.330;2023-09-30T19:39:09;13.25;;;6.90;;
30966;SDS011;17649;51.836;8.330;2023-09-30T19:42:10;15.70;;;7.70;;
30966;SDS011;17649;51.836;8.330;2023-09-30T19:45:10;13.88;;;7.25;;
30966;SDS011;17649;51.836;8.330;2023-09-30T19:48:11;16.35;;;7.55;;
30966;SDS011;17649;51.836;8.330;2023-09-30T19:51:11;16.80;;;6.93;;
30966;SDS011;17649;51.836;8.330;2023-09-30T19:54:14;11.93;;;7.95;;
30966;SDS011;17649;51.836;8.330;2023-09-30T19:57:15;13.02;;;7.25;;
30966;SDS011;17649;51.836;8.330;2023-09-30T20:00:15;12.52;;;6.22;;
30966;SDS011;17649;51.836;8.330;2023-09-30T20:03:17;15.45;;;7.50;;
30966;SDS011;17649;51.836;8.330;2023-09-30T20:06:18;15.95;;;6.93;;
30966;SDS011;17649;51.836;8.330;2023-09-30T20:09:20;14.93;;;7.22;;
30966;SDS011;17649;51.836;8.330;2023-09-30T20:12:22;15.57;;;6.78;;
30966;SDS011;17649;51.836;8.330;2023-09-30T20:15:22;15.35;;;7.30;;
30966;SDS011;17649;51.836;8.330;2023-09-30T20:18:23;18.73;;;7.25;;
30966;SDS011;17649;51.836;8.330;2023-09-30T20:21:24;11.52;;;6.22;;
30966;SDS011;17649;51.836;8.330;2023-09-30T20:24:25;11.82;;;7.30;;
30966;SDS011;17649;51.836;8.330;2023-09-30T20:27:25;12.13;;;6.72;;
30966;SDS011;17649;51.836;8.330;2023-09-30T20:30:25;11.90;;;6.15;;
30966;SDS011;17649;51.836;8.330;2023-09-30T20:33:26;13.70;;;6.50;;
30966;SDS011;17649;51.836;8.330;2023-09-30T20:36:26;17.30;;;7.32;;
30966;SDS011;17649;51.836;8.330;2023-09-30T20:39:27;14.32;;;8.07;;
30966;SDS011;17649;51.836;8.330;2023-09-30T20:42:27;15.98;;;5.72;;
30966;SDS011;17649;51.836;8.330;2023-09-30T20:45:27;15.63;;;6.95;;
30966;SDS011;17649;51.836;8.330;2023-09-30T20:48:28;11.57;;;5.72;;
30966;SDS011;17649;51.836;8.330;2023-09-30T20:51:29;10.95;;;6.47;;
30966;SDS011;17649;51.836;8.330;2023-09-30T20:54:29;12.35;;;6.65;;
30966;SDS011;17649;51.836;8.330;2023-09-30T20:57:33;12.95;;;6.32;;
30966;SDS011;17649;51.836;8.330;2023-09-30T21:00:34;16.52;;;6.72;;
30966;SDS011;17649;51.836;8.330;2023-09-30T21:03:35;18.00;;;6.70;;
30966;SDS011;17649;51.836;8.330;2023-09-30T21:06:35;15.13;;;7.57;;
30966;SDS011;17649;51.836;8.330;2023-09-30T21:09:35;13.25;;;7.55;;
30966;SDS011;17649;51.836;8.330;2023-09-30T21:12:37;12.55;;;6.88;;
30966;SDS011;17649;51.836;8.330;2023-09-30T21:15:37;17.08;;;8.27;;
30966;SDS011;17649;51.836;8.330;2023-09-30T21:18:37;16.10;;;7.20;;
30966;SDS011;17649;51.836;8.330;2023-09-30T21:21:38;20.30;;;7.85;;
30966;SDS011;17649;51.836;8.330;2023-09-30T21:24:39;9.75;;;6.15;;
30966;SDS011;17649;51.836;8.330;2023-09-30T21:27:40;17.27;;;7.03;;
30966;SDS011;17649;51.836;8.330;2023-09-30T21:30:41;16.45;;;9.30;;
30966;SDS011;17649;51.836;8.330;2023-09-30T21:33:42;15.60;;;7.68;;
30966;SDS011;17649;51.836;8.330;2023-09-30T21:36:43;23.80;;;8.27;;
30966;SDS011;17649;51.836;8.330;2023-09-30T21:39:43;18.60;;;7.55;;
30966;SDS011;17649;51.836;8.330;2023-09-30T21:42:44;14.43;;;8.18;;
30966;SDS011;17649;51.836;8.330;2023-09-30T21:45:44;14.55;;;7.93;;
30966;SDS011;17649;51.836;8.330;2023-09-30T21:48:44;14.10;;;7.82;;
30966;SDS011;17649;51.836;8.330;2023-09-30T21:51:45;15.98;;;7.68;;
30966;SDS011;17649;51.836;8.330;2023-09-30T21:54:46;19.17;;;7.60;;
30966;SDS011;17649;51.836;8.330;2023-09-30T21:57:46;17.70;;;8.35;;
30966;SDS011;17649;51.836;8.330;2023-09-30T22:00:47;13.77;;;8.13;;
30966;SDS011;17649;51.836;8.330;2023-09-30T22:03:47;17.17;;;8.18;;
30966;SDS011;17649;51.836;8.330;2023-09-30T22:06:48;19.10;;;8.40;;
30966;SDS011;17649;51.836;8.330;2023-09-30T22:09:49;16.63;;;8.13;;
30966;SDS011;17649;51.836;8.330;2023-09-30T22:12:49;13.95;;;9.07;;
30966;SDS011;17649;51.836;8.330;2023-09-30T22:15:50;15.95;;;8.13;;
30966;SDS011;17649;51.836;8.330;2023-09-30T22:18:51;17.38;;;9.15;;
30966;SDS011;17649;51.836;8.330;2023-09-30T22:21:51;18.85;;;9.88;;
30966;SDS011;17649;51.836;8.330;2023-09-30T22:24:52;13.20;;;9.13;;
30966;SDS011;17649;51.836;8.330;2023-09-30T22:27:54;13.88;;;8.73;;
30966;SDS011;17649;51.836;8.330;2023-09-30T22:30:54;16.42;;;8.73;;
30966;SDS011;17649;51.836;8.330;2023-09-30T22:33:55;17.35;;;9.25;;
30966;SDS011;17649;51.836;8.330;2023-09-30T22:36:55;16.75;;;9.20;;
30966;SDS011;17649;51.836;8.330;2023-09-30T22:39:56;15.82;;;8.90;;
30966;SDS011;17649;51.836;8.330;2023-09-30T22:42:56;21.60;;;10.38;;
30966;SDS011;17649;51.836;8.330;2023-09-30T22:45:57;20.55;;;9.68;;
30966;SDS011;17649;51.836;8.330;2023-09-30T22:48:57;14.60;;;8.95;;
30966;SDS011;17649;51.836;8.330;2023-09-30T22:51:59;17.23;;;9.30;;
30966;SDS011;17649;51.836;8.330;2023-09-30T22:54:59;16.15;;;9.18;;
30966;SDS011;17649;51.836;8.330;2023-09-30T22:58:00;21.63;;;10.20;;
30966;SDS011;17649;51.836;8.330;2023-09-30T23:01:00;17.08;;;9.40;;
30966;SDS011;17649;51.836;8.330;2023-09-30T23:04:01;18.65;;;10.52;;
30966;SDS011;17649;51.836;8.330;2023-09-30T23:07:03;19.67;;;10.30;;
30966;SDS011;17649;51.836;8.330;2023-09-30T23:10:04;16.13;;;9.13;;
30966;SDS011;17649;51.836;8.330;2023-09-30T23:13:08;20.50;;;10.23;;
30966;SDS011;17649;51.836;8.330;2023-09-30T23:16:09;15.32;;;9.15;;
30966;SDS011;17649;51.836;8.330;2023-09-30T23:19:09;19.17;;;10.57;;
30966;SDS011;17649;51.836;8.330;2023-09-30T23:22:11;14.27;;;9.68;;
30966;SDS011;17649;51.836;8.330;2023-09-30T23:25:13;15.50;;;8.90;;
30966;SDS011;17649;51.836;8.330;2023-09-30T23:28:18;17.85;;;9.07;;
30966;SDS011;17649;51.836;8.330;2023-09-30T23:31:23;17.33;;;8.85;;
30966;SDS011;17649;51.836;8.330;2023-09-30T23:34:23;14.82;;;9.93;;
30966;SDS011;17649;51.836;8.330;2023-09-30T23:37:23;16.70;;;9.18;;
30966;SDS011;17649;51.836;8.330;2023-09-30T23:40:25;17.23;;;9.00;;
30966;SDS011;17649;51.836;8.330;2023-09-30T23:43:25;18.38;;;9.50;;
30966;SDS011;17649;51.836;8.330;2023-09-30T23:46:30;17.00;;;8.88;;
30966;SDS011;17649;51.836;8.330;2023-09-30T23:49:39;17.40;;;8.95;;
30966;SDS011;17649;51.836;8.330;2023-09-30T23:52:44;18.63;;;9.10;;
30966;SDS011;17649;51.836;8.330;2023-09-30T23:55:45;14.20;;;8.20;;
30966;SDS011;17649;51.836;8.330;2023-09-30T23:58:47;18.77;;;7.82;;
